Terminal Aerodrome Forecast
Issued by NWS

Home | Current Version | Previous Version | Text Only | Print | Product List | Glossary On
Versions: 1 2 3 4 5 6 7 8 9 10 11 12 13 14
000
FTUS42 KMLB 211100
TAFLEE
TAF
KLEE 211137Z 2112/2212 06004KT 3SM BR OVC004
      TEMPO 2112/2114 1SM BR OVC002
     FM211400 14004KT P6SM SCT020 OVC050
     FM211800 18007KT P6SM VCSH SCT020 OVC040
     FM220200 12005KT P6SM VCSH SCT015 BKN025 OVC040
     FM220700 16003KT 5SM SHRA BKN015 OVC030=

USA.gov is the U.S. government's official web portal to all federal, state and local government web resources and services.